createdAt,value
2018-12-01T00:01:55.552Z,100114.00
2018-12-01T00:04:25.396Z,100108.00
2018-12-01T00:06:56.231Z,100107.00
2018-12-01T00:09:26.961Z,100118.00
2018-12-01T00:11:56.727Z,100119.00
2018-12-01T00:14:26.075Z,100113.00
2018-12-01T00:16:55.535Z,100117.00
2018-12-01T00:19:25.330Z,100113.00
2018-12-01T00:21:54.436Z,100110.00
2018-12-01T00:24:23.836Z,100116.00
2018-12-01T00:26:53.238Z,100118.00
2018-12-01T00:29:22.850Z,100122.00
2018-12-01T00:31:52.519Z,100118.00
2018-12-01T00:34:22.913Z,100125.00
2018-12-01T00:36:53.978Z,100123.00
2018-12-01T00:39:23.388Z,100123.00
2018-12-01T00:41:53.073Z,100119.00
2018-12-01T00:44:23.349Z,100124.00
2018-12-01T00:46:56.203Z,100124.00
2018-12-01T00:49:25.625Z,100123.00
2018-12-01T00:51:55.169Z,100125.00
2018-12-01T00:54:24.659Z,100125.00
2018-12-01T00:56:54.199Z,100126.00
2018-12-01T00:59:23.649Z,100123.00
2018-12-01T01:01:53.312Z,100122.00
2018-12-01T01:04:23.656Z,100127.00
2018-12-01T01:06:53.380Z,100124.00
2018-12-01T01:09:24.964Z,100128.00
2018-12-01T01:11:54.460Z,100135.00
2018-12-01T01:14:24.110Z,100142.00
2018-12-01T01:16:53.719Z,100145.00
2018-12-01T01:19:23.344Z,100135.00
2018-12-01T01:21:52.824Z,100137.00
2018-12-01T01:24:23.652Z,100132.00
2018-12-01T01:26:52.998Z,100136.00
2018-12-01T01:29:24.368Z,100136.00
2018-12-01T01:31:53.985Z,100139.00
2018-12-01T01:34:24.640Z,100147.00
2018-12-01T01:36:55.165Z,100146.00
2018-12-01T01:39:26.464Z,100148.00
2018-12-01T01:41:56.287Z,100147.00
2018-12-01T01:44:25.994Z,100139.00
2018-12-01T01:46:55.479Z,100136.00
2018-12-01T01:49:24.840Z,100144.00
2018-12-01T01:51:56.058Z,100141.00
2018-12-01T01:54:25.475Z,100136.00
2018-12-01T01:56:54.855Z,100139.00
2018-12-01T01:59:24.245Z,100132.00
2018-12-01T02:01:53.761Z,100136.00
2018-12-01T02:04:23.366Z,100144.00
2018-12-01T02:06:57.514Z,100140.00
2018-12-01T02:09:28.074Z,100141.00
2018-12-01T02:11:57.638Z,100138.00
2018-12-01T02:14:27.387Z,100133.00
2018-12-01T02:16:56.847Z,100137.00
2018-12-01T02:19:26.396Z,100135.00
2018-12-01T02:21:55.837Z,100132.00
2018-12-01T02:24:25.566Z,100132.00
2018-12-01T02:26:55.944Z,100132.00
2018-12-01T02:29:25.563Z,100133.00
2018-12-01T02:31:55.187Z,100129.00
2018-12-01T02:34:24.841Z,100129.00
2018-12-01T02:36:54.354Z,100131.00
2018-12-01T02:39:24.068Z,100134.00
2018-12-01T02:41:54.330Z,100133.00
2018-12-01T02:46:46.050Z,100135.00
2018-12-01T02:49:15.598Z,100137.00
2018-12-01T02:51:44.988Z,100132.00
2018-12-01T02:54:14.293Z,100131.00
2018-12-01T02:56:44.060Z,100141.00
2018-12-01T02:59:13.615Z,100144.00
2018-12-01T03:01:43.000Z,100144.00
2018-12-01T03:04:12.490Z,100147.00
2018-12-01T03:06:41.911Z,100141.00
2018-12-01T03:09:11.681Z,100155.00
2018-12-01T03:11:41.372Z,100149.00
2018-12-01T03:14:11.079Z,100159.00
2018-12-01T03:16:40.893Z,100156.00
2018-12-01T03:19:10.493Z,100159.00
2018-12-01T03:21:41.065Z,100159.00
2018-12-01T03:24:15.283Z,100169.00
2018-12-01T03:26:45.009Z,100164.00
2018-12-01T03:29:15.840Z,100168.00
2018-12-01T03:31:53.239Z,100171.00
2018-12-01T03:34:22.762Z,100171.00
2018-12-01T03:36:53.214Z,100173.00
2018-12-01T03:39:39.982Z,100170.00
2018-12-01T03:42:17.959Z,100171.00
2018-12-01T03:47:39.157Z,100174.00
2018-12-01T03:50:13.106Z,100177.00
2018-12-01T03:52:42.809Z,100179.00
2018-12-01T03:55:27.129Z,100179.00
2018-12-01T03:57:56.743Z,100182.00
2018-12-01T04:00:28.698Z,100181.00
2018-12-01T04:02:59.209Z,100185.00
2018-12-01T04:05:28.770Z,100180.00
2018-12-01T04:07:59.085Z,100182.00
2018-12-01T04:10:28.558Z,100183.00
2018-12-01T04:12:58.060Z,100181.00
2018-12-01T04:15:27.642Z,100189.00
2018-12-01T04:17:57.134Z,100188.00
2018-12-01T04:20:26.587Z,100186.00
2018-12-01T04:22:56.115Z,100178.00
2018-12-01T04:25:25.993Z,100182.00
2018-12-01T04:27:56.753Z,100186.00
2018-12-01T04:30:28.745Z,100185.00
2018-12-01T04:32:58.346Z,100184.00
2018-12-01T04:35:28.077Z,100180.00
2018-12-01T04:37:57.719Z,100174.00
2018-12-01T04:40:27.152Z,100177.00
2018-12-01T04:42:56.737Z,100172.00
2018-12-01T04:45:27.169Z,100169.00
2018-12-01T04:47:58.979Z,100174.00
2018-12-01T04:50:28.427Z,100173.00
2018-12-01T04:53:01.285Z,100180.00
2018-12-01T04:55:30.940Z,100184.00
2018-12-01T04:58:00.424Z,100189.00
2018-12-01T05:00:30.068Z,100193.00
2018-12-01T05:02:59.885Z,100188.00
2018-12-01T05:05:31.335Z,100187.00
2018-12-01T05:08:01.516Z,100194.00
2018-12-01T05:10:31.219Z,100191.00
2018-12-01T05:13:01.743Z,100197.00
2018-12-01T05:15:31.334Z,100200.00
2018-12-01T05:18:04.759Z,100211.00
2018-12-01T05:20:34.076Z,100211.00
2018-12-01T05:23:03.482Z,100216.00
2018-12-01T05:25:32.992Z,100217.00
2018-12-01T05:28:09.452Z,100209.00
2018-12-01T05:30:38.846Z,100221.00
2018-12-01T05:33:08.252Z,100219.00
2018-12-01T05:35:37.747Z,100221.00
2018-12-01T05:38:07.197Z,100211.00
2018-12-01T05:40:36.872Z,100207.00
2018-12-01T05:43:06.947Z,100212.00
2018-12-01T05:45:36.427Z,100215.00
2018-12-01T05:48:06.274Z,100205.00
2018-12-01T05:50:35.766Z,100210.00
2018-12-01T05:53:05.239Z,100210.00
2018-12-01T05:55:34.883Z,100215.00
2018-12-01T05:58:04.571Z,100228.00
2018-12-01T06:00:34.058Z,100228.00
2018-12-01T06:03:03.478Z,100230.00
2018-12-01T06:05:32.999Z,100227.00
2018-12-01T06:08:02.386Z,100229.00
2018-12-01T06:10:31.719Z,100234.00
2018-12-01T06:13:02.232Z,100231.00
2018-12-01T06:15:31.784Z,100233.00
2018-12-01T06:18:01.577Z,100236.00
2018-12-01T06:20:32.484Z,100238.00
2018-12-01T06:23:03.788Z,100237.00
2018-12-01T06:25:35.504Z,100248.00
2018-12-01T06:28:05.452Z,100243.00
2018-12-01T06:30:35.199Z,100241.00
2018-12-01T06:33:05.662Z,100251.00
2018-12-01T06:35:35.231Z,100250.00
2018-12-01T06:38:04.756Z,100253.00
2018-12-01T06:40:34.418Z,100250.00
2018-12-01T06:43:04.548Z,100245.00
2018-12-01T06:45:34.109Z,100254.00
2018-12-01T06:48:03.756Z,100251.00
2018-12-01T06:50:33.327Z,100255.00
2018-12-01T06:53:03.649Z,100255.00
2018-12-01T06:55:33.972Z,100255.00
2018-12-01T06:58:03.723Z,100252.00
2018-12-01T07:00:35.007Z,100256.00
2018-12-01T07:03:04.747Z,100259.00
2018-12-01T07:05:34.294Z,100267.00
2018-12-01T07:08:04.152Z,100269.00
2018-12-01T07:10:34.587Z,100263.00
2018-12-01T07:13:04.974Z,100270.00
2018-12-01T07:15:39.233Z,100274.00
2018-12-01T07:18:25.606Z,100275.00
2018-12-01T07:20:56.249Z,100273.00
2018-12-01T07:23:25.833Z,100266.00
2018-12-01T07:25:56.123Z,100274.00
2018-12-01T07:28:25.815Z,100275.00
2018-12-01T07:30:57.662Z,100276.00
2018-12-01T07:33:37.366Z,100277.00
2018-12-01T07:36:07.118Z,100284.00
2018-12-01T07:38:37.445Z,100283.00
2018-12-01T07:41:07.408Z,100284.00
2018-12-01T07:43:37.321Z,100286.00
2018-12-01T07:46:07.773Z,100286.00
2018-12-01T07:48:37.366Z,100293.00
2018-12-01T07:51:07.650Z,100289.00
2018-12-01T07:53:37.138Z,100288.00
2018-12-01T07:56:06.884Z,100284.00
2018-12-01T07:58:36.415Z,100282.00
2018-12-01T08:01:06.075Z,100281.00
2018-12-01T08:03:35.794Z,100291.00
2018-12-01T08:06:05.619Z,100287.00
2018-12-01T08:08:35.887Z,100295.00
2018-12-01T08:11:05.466Z,100295.00
2018-12-01T08:13:39.026Z,100291.00
2018-12-01T08:16:08.395Z,100303.00
2018-12-01T08:18:37.860Z,100305.00
2018-12-01T08:21:09.786Z,100300.00
2018-12-01T08:23:39.401Z,100295.00
2018-12-01T08:26:10.810Z,100299.00
2018-12-01T08:28:40.217Z,100303.00
2018-12-01T08:31:13.642Z,100298.00
2018-12-01T08:33:45.066Z,100295.00
2018-12-01T08:36:20.025Z,100293.00
2018-12-01T08:38:49.675Z,100294.00
2018-12-01T08:41:20.718Z,100296.00
2018-12-01T08:43:52.392Z,100293.00
2018-12-01T08:46:22.803Z,100292.00
2018-12-01T08:48:53.163Z,100293.00
2018-12-01T08:51:25.101Z,100285.00
2018-12-01T08:53:56.634Z,100287.00
2018-12-01T08:56:27.011Z,100291.00
2018-12-01T08:58:58.834Z,100294.00
2018-12-01T09:01:30.277Z,100293.00
2018-12-01T09:04:04.337Z,100300.00
2018-12-01T09:06:34.078Z,100296.00
2018-12-01T09:09:04.426Z,100293.00
2018-12-01T09:11:40.046Z,100297.00
2018-12-01T09:14:12.529Z,100297.00
2018-12-01T09:16:41.932Z,100296.00
2018-12-01T09:19:11.566Z,100293.00
2018-12-01T09:21:43.361Z,100291.00
2018-12-01T09:24:13.142Z,100292.00
2018-12-01T09:26:46.107Z,100300.00
2018-12-01T09:29:16.726Z,100295.00
2018-12-01T09:31:46.237Z,100292.00
2018-12-01T09:34:15.690Z,100291.00
2018-12-01T09:36:45.855Z,100286.00
2018-12-01T09:39:15.410Z,100282.00
2018-12-01T09:41:45.066Z,100282.00
2018-12-01T09:44:15.889Z,100279.00
2018-12-01T09:46:45.311Z,100277.00
2018-12-01T09:49:14.852Z,100276.00
2018-12-01T09:51:44.974Z,100275.00
2018-12-01T09:54:15.290Z,100274.00
2018-12-01T09:56:45.517Z,100272.00
2018-12-01T09:59:16.884Z,100270.00
2018-12-01T10:01:48.352Z,100268.00
2018-12-01T10:04:17.995Z,100267.00
2018-12-01T10:06:48.754Z,100268.00
2018-12-01T10:09:19.450Z,100264.00
2018-12-01T10:11:50.584Z,100272.00
2018-12-01T10:14:18.882Z,100271.00
2018-12-01T10:16:49.044Z,100269.00
2018-12-01T10:19:18.646Z,100271.00
2018-12-01T10:21:48.061Z,100275.00
2018-12-01T10:24:17.950Z,100268.00
2018-12-01T10:26:47.446Z,100266.00
2018-12-01T10:29:17.065Z,100264.00
2018-12-01T10:31:46.774Z,100263.00
2018-12-01T10:34:17.754Z,100263.00
2018-12-01T10:36:49.502Z,100256.00
2018-12-01T10:39:19.191Z,100260.00
2018-12-01T10:41:48.639Z,100258.00
2018-12-01T10:44:18.068Z,100249.00
2018-12-01T10:46:47.598Z,100248.00
2018-12-01T10:49:17.396Z,100244.00
2018-12-01T10:51:47.813Z,100243.00
2018-12-01T10:54:18.245Z,100236.00
2018-12-01T10:56:48.032Z,100231.00
2018-12-01T10:59:17.559Z,100229.00
2018-12-01T11:01:52.390Z,100232.00
2018-12-01T11:04:27.041Z,100231.00
2018-12-01T11:06:56.528Z,100237.00
2018-12-01T11:09:26.149Z,100234.00
2018-12-01T11:11:55.687Z,100227.00
2018-12-01T11:14:25.245Z,100233.00
2018-12-01T11:16:54.815Z,100228.00
2018-12-01T11:19:24.502Z,100224.00
2018-12-01T11:21:54.141Z,100219.00
2018-12-01T11:24:23.652Z,100221.00
2018-12-01T11:26:53.276Z,100227.00
2018-12-01T11:29:22.781Z,100224.00
2018-12-01T11:31:52.246Z,100229.00
2018-12-01T11:34:21.792Z,100224.00
2018-12-01T11:36:51.389Z,100218.00
2018-12-01T11:39:20.967Z,100222.00
2018-12-01T11:41:50.485Z,100223.00
2018-12-01T11:44:19.977Z,100220.00
2018-12-01T11:46:49.595Z,100218.00
2018-12-01T11:49:19.264Z,100220.00
2018-12-01T11:51:48.898Z,100218.00
2018-12-01T11:54:18.588Z,100221.00
2018-12-01T11:56:48.167Z,100218.00
2018-12-01T11:59:17.679Z,100207.00
2018-12-01T12:01:47.211Z,100220.00
2018-12-01T12:04:17.056Z,100215.00
2018-12-01T12:06:46.679Z,100220.00
2018-12-01T12:09:16.164Z,100210.00
2018-12-01T12:11:45.772Z,100210.00
2018-12-01T12:14:15.606Z,100217.00
2018-12-01T12:16:45.297Z,100211.00
2018-12-01T12:19:14.815Z,100219.00
2018-12-01T12:21:44.375Z,100217.00
2018-12-01T12:24:14.111Z,100217.00
2018-12-01T12:26:43.722Z,100208.00
2018-12-01T12:29:13.277Z,100217.00
2018-12-01T12:31:42.769Z,100223.00
2018-12-01T12:34:12.179Z,100222.00
2018-12-01T12:36:41.659Z,100220.00
2018-12-01T12:39:11.169Z,100220.00
2018-12-01T12:41:41.979Z,100214.00
2018-12-01T12:44:12.359Z,100210.00
2018-12-01T12:46:41.844Z,100208.00
2018-12-01T12:49:11.469Z,100203.00
2018-12-01T12:51:40.910Z,100207.00
2018-12-01T12:54:10.283Z,100202.00
2018-12-01T12:56:40.338Z,100209.00
2018-12-01T12:59:09.740Z,100208.00
2018-12-01T13:01:39.178Z,100206.00
2018-12-01T13:04:08.800Z,100207.00
2018-12-01T13:06:38.335Z,100213.00
2018-12-01T13:09:10.530Z,100202.00
2018-12-01T13:11:40.076Z,100203.00
2018-12-01T13:14:09.500Z,100191.00
2018-12-01T13:16:39.003Z,100189.00
2018-12-01T13:19:08.495Z,100190.00
2018-12-01T13:21:38.018Z,100192.00
2018-12-01T13:24:07.518Z,100191.00
2018-12-01T13:26:36.963Z,100189.00
2018-12-01T13:29:07.678Z,100190.00
2018-12-01T13:31:37.111Z,100184.00
2018-12-01T13:34:06.598Z,100180.00
2018-12-01T13:36:36.063Z,100177.00
2018-12-01T13:39:08.596Z,100174.00
2018-12-01T13:41:38.744Z,100176.00
2018-12-01T13:44:08.318Z,100170.00
2018-12-01T13:46:37.829Z,100171.00
2018-12-01T13:49:07.354Z,100173.00
2018-12-01T13:51:36.811Z,100173.00
2018-12-01T13:54:06.392Z,100171.00
2018-12-01T13:56:35.818Z,100183.00
2018-12-01T13:59:05.223Z,100179.00
2018-12-01T14:01:34.740Z,100177.00
2018-12-01T14:04:04.142Z,100177.00
2018-12-01T14:06:33.574Z,100177.00
2018-12-01T14:09:03.153Z,100180.00
2018-12-01T14:11:32.712Z,100184.00
2018-12-01T14:14:02.231Z,100186.00
2018-12-01T14:16:31.698Z,100190.00
2018-12-01T14:19:01.180Z,100188.00
2018-12-01T14:21:30.682Z,100193.00
2018-12-01T14:24:01.441Z,100185.00
2018-12-01T14:26:31.107Z,100191.00
2018-12-01T14:29:01.644Z,100185.00
2018-12-01T14:31:31.193Z,100185.00
2018-12-01T14:34:01.927Z,100181.00
2018-12-01T14:36:32.723Z,100179.00
2018-12-01T14:39:02.277Z,100184.00
2018-12-01T14:41:35.311Z,100185.00
2018-12-01T14:44:05.717Z,100185.00
2018-12-01T14:46:36.924Z,100186.00
2018-12-01T14:49:08.720Z,100187.00
2018-12-01T14:51:40.318Z,100188.00
2018-12-01T14:54:09.770Z,100188.00
2018-12-01T14:56:41.423Z,100186.00
2018-12-01T14:59:11.555Z,100191.00
2018-12-01T15:01:41.213Z,100199.00
2018-12-01T15:04:10.770Z,100203.00
2018-12-01T15:06:40.719Z,100209.00
2018-12-01T15:09:10.649Z,100214.00
2018-12-01T15:11:40.159Z,100213.00
2018-12-01T15:14:09.638Z,100215.00
2018-12-01T15:16:39.883Z,100210.00
2018-12-01T15:19:09.696Z,100210.00
2018-12-01T15:21:41.949Z,100211.00
2018-12-01T15:24:13.455Z,100207.00
2018-12-01T15:26:44.150Z,100198.00
2018-12-01T15:29:13.778Z,100200.00
2018-12-01T15:31:45.470Z,100194.00
2018-12-01T15:34:15.000Z,100197.00
2018-12-01T15:36:44.531Z,100193.00
2018-12-01T15:39:14.087Z,100186.00
2018-12-01T15:41:43.721Z,100195.00
2018-12-01T15:44:13.148Z,100191.00
2018-12-01T15:46:43.251Z,100199.00
2018-12-01T15:49:12.921Z,100196.00
2018-12-01T15:51:43.651Z,100197.00
2018-12-01T15:54:13.271Z,100200.00
2018-12-01T15:56:44.990Z,100201.00
2018-12-01T15:59:19.282Z,100194.00
2018-12-01T16:01:53.527Z,100195.00
2018-12-01T16:04:30.175Z,100196.00
2018-12-01T16:06:59.769Z,100198.00
2018-12-01T16:09:32.366Z,100191.00
2018-12-01T16:12:01.923Z,100197.00
2018-12-01T16:14:31.676Z,100196.00
2018-12-01T16:17:04.185Z,100194.00
2018-12-01T16:19:33.951Z,100194.00
2018-12-01T16:22:14.679Z,100183.00
2018-12-01T16:24:58.814Z,100187.00
2018-12-01T16:27:31.347Z,100190.00
2018-12-01T16:30:05.328Z,100197.00
2018-12-01T16:32:38.763Z,100202.00
2018-12-01T16:35:11.848Z,100199.00
2018-12-01T16:37:45.017Z,100198.00
2018-12-01T16:40:21.760Z,100196.00
2018-12-01T16:42:52.553Z,100197.00
2018-12-01T16:45:26.914Z,100199.00
2018-12-01T16:48:05.381Z,100183.00
2018-12-01T16:50:34.885Z,100182.00
2018-12-01T16:53:04.283Z,100184.00
2018-12-01T16:55:35.416Z,100182.00
2018-12-01T16:58:18.999Z,100189.00
2018-12-01T17:00:53.459Z,100181.00
2018-12-01T17:03:24.237Z,100179.00
2018-12-01T17:06:02.096Z,100173.00
2018-12-01T17:08:38.602Z,100166.00
2018-12-01T17:11:12.670Z,100158.00
2018-12-01T17:13:42.123Z,100169.00
2018-12-01T17:16:12.720Z,100161.00
2018-12-01T17:18:42.419Z,100161.00
2018-12-01T17:21:11.964Z,100162.00
2018-12-01T17:23:51.607Z,100157.00
2018-12-01T17:26:21.995Z,100157.00
2018-12-01T17:28:55.812Z,100154.00
2018-12-01T17:31:25.389Z,100145.00
2018-12-01T17:33:55.232Z,100147.00
2018-12-01T17:36:24.726Z,100139.00
2018-12-01T17:38:54.880Z,100141.00
2018-12-01T17:44:43.728Z,100135.00
2018-12-01T17:47:16.411Z,100134.00
2018-12-01T17:49:48.895Z,100135.00
2018-12-01T17:52:23.500Z,100133.00
2018-12-01T17:54:53.158Z,100132.00
2018-12-01T17:57:22.830Z,100130.00
2018-12-01T17:59:52.525Z,100126.00
2018-12-01T18:02:24.546Z,100120.00
2018-12-01T18:04:54.042Z,100110.00
2018-12-01T18:07:25.954Z,100110.00
2018-12-01T18:09:57.634Z,100092.00
2018-12-01T18:12:32.760Z,100091.00
2018-12-01T18:15:06.247Z,100083.00
2018-12-01T18:17:39.544Z,100076.00
2018-12-01T18:20:18.174Z,100080.00
2018-12-01T18:22:51.480Z,100076.00
2018-12-01T18:25:22.031Z,100078.00
2018-12-01T18:28:03.027Z,100078.00
2018-12-01T18:30:39.764Z,100075.00
2018-12-01T18:33:18.013Z,100075.00
2018-12-01T18:35:48.258Z,100076.00
2018-12-01T18:38:22.382Z,100071.00
2018-12-01T18:40:52.145Z,100067.00
2018-12-01T18:43:25.407Z,100070.00
2018-12-01T18:45:57.743Z,100070.00
2018-12-01T18:48:27.166Z,100065.00
2018-12-01T18:50:56.776Z,100057.00
2018-12-01T18:53:27.655Z,100055.00
2018-12-01T18:56:06.400Z,100047.00
2018-12-01T18:58:37.813Z,100047.00
2018-12-01T19:01:17.117Z,100051.00
2018-12-01T19:03:47.937Z,100048.00
2018-12-01T19:06:28.074Z,100048.00
2018-12-01T19:08:57.690Z,100048.00
2018-12-01T19:11:27.386Z,100044.00
2018-12-01T19:13:57.030Z,100046.00
2018-12-01T19:16:26.563Z,100048.00
2018-12-01T19:18:55.977Z,100053.00
2018-12-01T19:21:28.990Z,100058.00
2018-12-01T19:23:59.483Z,100048.00
2018-12-01T19:26:31.179Z,100051.00
2018-12-01T19:29:00.790Z,100050.00
2018-12-01T19:31:30.320Z,100054.00
2018-12-01T19:33:59.828Z,100045.00
2018-12-01T19:36:29.293Z,100044.00
2018-12-01T19:38:58.898Z,100040.00
2018-12-01T19:41:29.655Z,100044.00
2018-12-01T19:44:01.432Z,100040.00
2018-12-01T19:46:32.487Z,100047.00
2018-12-01T19:49:02.414Z,100033.00
2018-12-01T19:51:32.394Z,100039.00
2018-12-01T19:54:04.508Z,100039.00
2018-12-01T19:56:40.062Z,100031.00
2018-12-01T19:59:12.300Z,100025.00
2018-12-01T20:01:41.832Z,100023.00
2018-12-01T20:04:16.970Z,100021.00
2018-12-01T20:06:59.173Z,100013.00
2018-12-01T20:09:30.890Z,100014.00
2018-12-01T20:12:05.479Z,100017.00
2018-12-01T20:14:42.824Z,100004.00
2018-12-01T20:17:16.648Z,100008.00
2018-12-01T20:19:47.205Z,100009.00
2018-12-01T20:22:24.613Z,100003.00
2018-12-01T20:24:54.387Z,100006.00
2018-12-01T20:27:24.018Z,100001.00
2018-12-01T20:29:53.858Z,99997.00
2018-12-01T20:32:23.459Z,100003.00
2018-12-01T20:34:53.168Z,100005.00
2018-12-01T20:37:22.649Z,99994.00
2018-12-01T20:39:52.818Z,100000.00
2018-12-01T20:42:22.464Z,100004.00
2018-12-01T20:44:52.195Z,100001.00
2018-12-01T20:47:22.153Z,99994.00
2018-12-01T20:49:53.249Z,99990.00
2018-12-01T20:52:22.996Z,99988.00
2018-12-01T20:54:52.771Z,99983.00
2018-12-01T20:57:31.770Z,99979.00
2018-12-01T21:00:04.917Z,99979.00
2018-12-01T21:02:35.598Z,99972.00
2018-12-01T21:05:05.244Z,99973.00
2018-12-01T21:07:35.266Z,99968.00
2018-12-01T21:10:09.849Z,99956.00
2018-12-01T21:12:39.495Z,99951.00
2018-12-01T21:15:13.737Z,99948.00
2018-12-01T21:17:44.373Z,99953.00
2018-12-01T21:20:17.977Z,99941.00
2018-12-01T21:22:50.399Z,99939.00
2018-12-01T21:25:30.057Z,99935.00
2018-12-01T21:28:01.788Z,99941.00
2018-12-01T21:30:32.074Z,99939.00
2018-12-01T21:33:35.231Z,99941.00
2018-12-01T21:36:05.002Z,99942.00
2018-12-01T21:38:35.444Z,99944.00
2018-12-01T21:41:05.609Z,99944.00
2018-12-01T21:43:36.074Z,99927.00
2018-12-01T21:46:06.193Z,99932.00
2018-12-01T21:48:36.209Z,99923.00
2018-12-01T21:51:06.533Z,99917.00
2018-12-01T21:53:36.223Z,99908.00
2018-12-01T21:56:06.121Z,99916.00
2018-12-01T21:58:35.937Z,99911.00
2018-12-01T22:01:05.737Z,99909.00
2018-12-01T22:03:36.813Z,99903.00
2018-12-01T22:06:09.712Z,99898.00
2018-12-01T22:08:40.813Z,99902.00
2018-12-01T22:11:11.318Z,99894.00
2018-12-01T22:13:42.379Z,99885.00
2018-12-01T22:16:12.376Z,99893.00
2018-12-01T22:18:43.652Z,99881.00
2018-12-01T22:21:13.337Z,99884.00
2018-12-01T22:23:43.980Z,99875.00
2018-12-01T22:26:14.098Z,99879.00
2018-12-01T22:28:44.237Z,99877.00
2018-12-01T22:31:15.248Z,99865.00
2018-12-01T22:33:46.841Z,99862.00
2018-12-01T22:36:18.668Z,99862.00
2018-12-01T22:38:49.525Z,99873.00
2018-12-01T22:41:19.264Z,99880.00
2018-12-01T22:43:59.139Z,99880.00
2018-12-01T22:46:31.103Z,99870.00
2018-12-01T22:49:00.819Z,99856.00
2018-12-01T22:51:31.585Z,99858.00
2018-12-01T22:54:01.296Z,99855.00
2018-12-01T22:56:30.961Z,99854.00
2018-12-01T22:59:00.618Z,99861.00
2018-12-01T23:01:30.354Z,99854.00
2018-12-01T23:04:00.743Z,99858.00
2018-12-01T23:06:32.825Z,99857.00
2018-12-01T23:09:03.167Z,99853.00
2018-12-01T23:11:33.759Z,99855.00
2018-12-01T23:14:06.784Z,99855.00
2018-12-01T23:16:46.410Z,99857.00
2018-12-01T23:19:29.991Z,99844.00
2018-12-01T23:22:07.375Z,99842.00
2018-12-01T23:24:48.856Z,99830.00
2018-12-01T23:27:25.709Z,99827.00
2018-12-01T23:30:02.515Z,99819.00
2018-12-01T23:32:45.078Z,99808.00
2018-12-01T23:35:30.259Z,99803.00
2018-12-01T23:38:02.290Z,99801.00
2018-12-01T23:40:35.074Z,99792.00
2018-12-01T23:43:06.005Z,99793.00
2018-12-01T23:45:49.543Z,99785.00
2018-12-01T23:48:20.421Z,99773.00
2018-12-01T23:50:53.758Z,99771.00
2018-12-01T23:53:26.817Z,99759.00
2018-12-01T23:56:03.371Z,99760.00
2018-12-01T23:58:33.833Z,99758.00
